Sasebo, Japan
Current Conditions -  °F | °C
As of 6:10 AM on Thursday 23 Oct 2014 (Local Time) from RJFU Reporting Station
Few Clouds Few Clouds  
Wind Chill: 61°   Ceiling: Unl
Heat Index: 61°   Visibility: 6mi
Dew Point: 50°   Wind: 12mph
Humidity: 68%   Direction: 10°N
Pressure: 30.03"   Gusts: NA
Location:  33.16°N, 129.72°E
Report Text: RJFU 222110Z 01010KT 9999 FEW030 16/10 Q1017 RMK 2CU030 A3006
Loading
Personal Weather Stations






























Interactive Weather Map
Tropical Storm Tracking
New forecast layout! Learn more

10-Day Weather Forecast

Advertisements
Track Severe Weather on mobile